This is the latest recevied weather packets stored in our database for station/object SV2RCS-13. If no packets are shown the sender has not sent any weather packets the latest 10 day(s).
| Time | Temp. | Humidity | Pressure | Rain* | Wind** | Luminosity | Snow |
|---|---|---|---|---|---|---|---|
| 1777378016 | 20.56° C | 25% | 1013.8 hPa | - | - | - | - |
| 1777377416 | 20.56° C | 26% | 1013.9 hPa | - | - | - | - |
| 1777376816 | 20° C | 30% | 1014.2 hPa | - | - | - | - |
| 1777376216 | 19.44° C | 30% | 1014.3 hPa | - | - | - | - |
| 1777375616 | 20° C | 30% | 1014.4 hPa | - | - | - | - |
| 1777375016 | 20° C | 26% | 1014.4 hPa | - | - | - | - |
| 1777374416 | 20° C | 35% | 1014.5 hPa | - | - | - | - |
| 1777373816 | 20° C | 37% | 1014.6 hPa | - | - | - | - |
| 1777373216 | 19.44° C | 37% | 1014.9 hPa | - | - | - | - |
| 1777372622 | 19.44° C | 39% | 1015 hPa | - | - | - | - |
| 1777372016 | 19.44° C | 40% | 1015 hPa | - | - | - | - |
| 1777371416 | 19.44° C | 40% | 1015.2 hPa | - | - | - | - |
| 1777370816 | 19.44° C | 40% | 1015.3 hPa | - | - | - | - |
| 1777370216 | 19.44° C | 41% | 1015.5 hPa | - | - | - | - |
| 1777369616 | 19.44° C | 41% | 1015.5 hPa | - | - | - | - |
| 1777369016 | 20° C | 40% | 1015.5 hPa | - | - | - | - |
| 1777368416 | 19.44° C | 40% | 1015.5 hPa | - | - | - | - |
| 1777367816 | 19.44° C | 39% | 1015.7 hPa | - | - | - | - |
| 1777367216 | 20° C | 38% | 1015.6 hPa | - | - | - | - |
| 1777366616 | 20.56° C | 38% | 1015.5 hPa | - | - | - | - |
| 1777366016 | 21.11° C | 36% | 1015.4 hPa | - | - | - | - |
| 1777365416 | 21.11° C | 35% | 1015.4 hPa | - | - | - | - |
| 1777364816 | 21.11° C | 36% | 1015.4 hPa | - | - | - | - |
| 1777364216 | 21.67° C | 35% | 1015.3 hPa | - | - | - | - |
| 1777363616 | 22.22° C | 35% | 1015.4 hPa | - | - | - | - |
* Rain since midnight (hover to see other rain measurements)
** Current wind speed in m/s (hover to see current wind gust speed)